Time;durP1;ratioP1;P1;durP2;ratioP2;P2;SDS_P1;SDS_P2;PMS_P1;PMS_P2;Temp;Humidity;BMP_temperature;BMP_pressure;BME280_temperature;BME280_humidity;BME280_pressure;Samples;Min_cycle;Max_cycle;Signal;HPM_P1;HPM_P2
2021/01/31 03:47:00;;;;;;;13.57;2.20;;;;;;;;;;5898149;22;20073;-55
2021/01/31 03:49:42;;;;;;;7.97;1.77;;;;;;;;;;4996217;28;20036;-55
2021/01/31 03:52:09;;;;;;;11.70;1.57;;;;;;;;;;5013986;28;20045;-55
2021/01/31 03:54:35;;;;;;;9.00;1.70;;;;;;;;;;5013547;28;20018;-56
2021/01/31 03:57:04;;;;;;;5.13;1.23;;;;;;;;;;5013733;28;20029;-56
2021/01/31 03:59:33;;;;;;;6.90;1.20;;;;;;;;;;5013714;28;20027;-56
2021/01/31 04:02:01;;;;;;;14.10;1.27;;;;;;;;;;4996121;28;20049;-55
2021/01/31 04:04:38;;;;;;;5.13;1.57;;;;;;;;;;5013558;28;20034;-55
2021/01/31 04:07:06;;;;;;;2.73;1.13;;;;;;;;;;5013491;28;20105;-55
2021/01/31 04:09:34;;;;;;;5.93;1.40;;;;;;;;;;5013469;28;20030;-56
2021/01/31 04:12:02;;;;;;;3.20;1.10;;;;;;;;;;5013454;28;20073;-55
2021/01/31 04:14:35;;;;;;;5.40;1.17;;;;;;;;;;5013337;28;20033;-55
2021/01/31 04:17:02;;;;;;;5.17;1.40;;;;;;;;;;5013103;28;20029;-55
2021/01/31 04:19:32;;;;;;;6.43;1.30;;;;;;;;;;5013273;28;20068;-55
2021/01/31 04:21:59;;;;;;;2.53;1.10;;;;;;;;;;5013247;28;20025;-55
2021/01/31 04:24:25;;;;;;;3.90;1.20;;;;;;;;;;5013332;28;20422;-55
2021/01/31 04:26:52;;;;;;;5.10;1.30;;;;;;;;;;5013174;28;20381;-55
2021/01/31 04:29:19;;;;;;;8.23;1.47;;;;;;;;;;5013312;28;20048;-55
2021/01/31 04:31:46;;;;;;;3.17;1.37;;;;;;;;;;5012923;28;20156;-55
2021/01/31 04:34:12;;;;;;;4.20;1.40;;;;;;;;;;5013258;28;20022;-55
2021/01/31 04:36:39;;;;;;;5.27;1.30;;;;;;;;;;5013162;28;20091;-55
2021/01/31 04:39:06;;;;;;;6.83;1.70;;;;;;;;;;5013200;28;20158;-55
2021/01/31 04:41:38;;;;;;;8.17;1.60;;;;;;;;;;5013130;28;20026;-55
2021/01/31 04:44:10;;;;;;;3.43;1.03;;;;;;;;;;5013093;28;20517;-55
2021/01/31 04:46:40;;;;;;;6.07;1.43;;;;;;;;;;5014450;28;20127;-55
2021/01/31 04:49:22;;;;;;;8.77;1.67;;;;;;;;;;5013081;28;20026;-55
2021/01/31 04:52:18;;;;;;;4.70;1.47;;;;;;;;;;5012949;28;20041;-55
2021/01/31 04:54:44;;;;;;;;;;;;;;;;;;4993112;28;20030;-55
2021/01/31 04:57:13;;;;;;;5.83;1.20;;;;;;;;;;5012987;28;19936;-55
2021/01/31 04:59:45;;;;;;;3.13;1.57;;;;;;;;;;4997461;28;20026;-55
2021/01/31 05:02:14;;;;;;;3.70;1.80;;;;;;;;;;5016981;28;20034;-55
2021/01/31 05:04:49;;;;;;;5.77;2.10;;;;;;;;;;5016874;28;20030;-55
2021/01/31 05:07:16;;;;;;;3.60;1.93;;;;;;;;;;5016840;28;20025;-55
2021/01/31 05:09:43;;;;;;;7.03;2.87;;;;;;;;;;5016808;28;20044;-55
2021/01/31 05:12:12;;;;;;;6.17;2.20;;;;;;;;;;5016696;28;20041;-55
2021/01/31 05:14:48;;;;;;;6.10;2.67;;;;;;;;;;5016670;28;20034;-55
2021/01/31 05:17:16;;;;;;;6.33;1.67;;;;;;;;;;5016719;28;20076;-55
2021/01/31 05:19:42;;;;;;;3.63;1.10;;;;;;;;;;5016662;28;20033;-55
2021/01/31 05:22:11;;;;;;;7.17;1.60;;;;;;;;;;5016476;28;20026;-55
2021/01/31 05:24:44;;;;;;;2.83;1.30;;;;;;;;;;4999098;28;20388;-55
2021/01/31 05:27:12;;;;;;;2.83;1.20;;;;;;;;;;5016646;28;20033;-55
2021/01/31 05:29:40;;;;;;;6.17;1.20;;;;;;;;;;5016428;28;20034;-55
2021/01/31 05:32:08;;;;;;;1.57;0.80;;;;;;;;;;5016356;28;20045;-55
2021/01/31 05:34:45;;;;;;;3.27;0.57;;;;;;;;;;4998827;28;20072;-55
2021/01/31 05:37:13;;;;;;;2.33;0.87;;;;;;;;;;5016312;28;20033;-55
2021/01/31 05:39:43;;;;;;;1.50;0.83;;;;;;;;;;5016324;28;20057;-55
2021/01/31 05:42:18;;;;;;;2.47;1.50;;;;;;;;;;5016258;28;20499;-55
2021/01/31 05:44:45;;;;;;;4.63;2.10;;;;;;;;;;5016162;28;20029;-55
2021/01/31 05:47:22;;;;;;;6.47;2.10;;;;;;;;;;5017594;28;20071;-55
2021/01/31 05:49:53;;;;;;;4.80;1.80;;;;;;;;;;5015954;28;20029;-55
2021/01/31 05:52:20;;;;;;;2.77;1.73;;;;;;;;;;5016087;28;20017;-55
2021/01/31 05:54:47;;;;;;;5.23;1.63;;;;;;;;;;5015990;28;20034;-55
2021/01/31 05:57:27;;;;;;;2.97;1.50;;;;;;;;;;5015849;28;20499;-55
2021/01/31 05:59:55;;;;;;;2.60;1.03;;;;;;;;;;5015927;28;20768;-55
2021/01/31 06:02:27;;;;;;;3.03;1.37;;;;;;;;;;5015952;28;20026;-55
2021/01/31 06:05:15;;;;;;;3.07;1.30;;;;;;;;;;5015779;28;20034;-55
2021/01/31 06:07:42;;;;;;;3.13;1.40;;;;;;;;;;5015723;28;20034;-55
2021/01/31 06:10:12;;;;;;;3.40;1.00;;;;;;;;;;5015448;28;20345;-55
2021/01/31 06:12:39;;;;;;;4.23;1.27;;;;;;;;;;5015728;28;20288;-55
2021/01/31 06:15:13;;;;;;;7.40;2.57;;;;;;;;;;5015670;28;20045;-55
2021/01/31 06:17:41;;;;;;;3.95;1.05;;;;;;;;;;5015572;28;20041;-55
2021/01/31 06:20:17;;;;;;;4.03;1.00;;;;;;;;;;4998021;28;20026;-55
2021/01/31 06:22:44;;;;;;;4.07;1.27;;;;;;;;;;5015540;28;20614;-55
2021/01/31 06:25:34;;;;;;;3.27;1.20;;;;;;;;;;5015506;28;20258;-55
2021/01/31 06:28:10;;;;;;;3.80;1.60;;;;;;;;;;5015403;28;20734;-55
2021/01/31 06:30:42;;;;;;;3.03;1.40;;;;;;;;;;5015241;28;20305;-55
2021/01/31 06:33:09;;;;;;;5.33;2.00;;;;;;;;;;5015279;28;20251;-55
2021/01/31 06:35:36;;;;;;;3.87;1.77;;;;;;;;;;5014915;28;20256;-55
2021/01/31 06:38:03;;;;;;;3.60;1.90;;;;;;;;;;5014895;28;20247;-55
2021/01/31 06:40:38;;;;;;;6.47;1.90;;;;;;;;;;5014933;28;20256;-55
2021/01/31 06:43:13;;;;;;;6.07;1.90;;;;;;;;;;5015124;28;20248;-55
2021/01/31 06:45:58;;;;;;;7.27;3.10;;;;;;;;;;5015088;28;20248;-55
2021/01/31 06:48:29;;;;;;;4.68;2.60;;;;;;;;;;5016694;28;20378;-55
2021/01/31 06:51:14;;;;;;;6.07;2.57;;;;;;;;;;5014951;28;20096;-55
2021/01/31 06:53:47;;;;;;;6.50;2.88;;;;;;;;;;5014960;28;20267;-55
2021/01/31 06:56:32;;;;;;;5.60;2.60;;;;;;;;;;5014754;28;20089;-55
2021/01/31 06:58:58;;;;;;;4.82;2.28;;;;;;;;;;5014786;28;20256;-55
2021/01/31 07:01:34;;;;;;;4.93;2.43;;;;;;;;;;5014628;28;20108;-55
2021/01/31 07:04:01;;;;;;;5.23;2.50;;;;;;;;;;5014687;28;20270;-55
2021/01/31 07:06:38;;;;;;;4.57;2.17;;;;;;;;;;5014638;28;20251;-55
2021/01/31 07:09:31;;;;;;;4.13;2.07;;;;;;;;;;5014571;28;20260;-55
2021/01/31 07:12:02;;;;;;;14.20;2.43;;;;;;;;;;5010373;28;20774;-55
2021/01/31 07:14:45;;;;;;;4.00;1.90;;;;;;;;;;5014410;28;20734;-55
2021/01/31 07:17:20;;;;;;;7.90;2.30;;;;;;;;;;5014421;28;20255;-55
2021/01/31 07:19:47;;;;;;;5.93;2.00;;;;;;;;;;5014447;28;20267;-55
2021/01/31 07:22:19;;;;;;;5.33;2.37;;;;;;;;;;5013631;28;20033;-55
2021/01/31 07:24:50;;;;;;;5.23;1.80;;;;;;;;;;5014273;28;20259;-55
2021/01/31 07:27:26;;;;;;;5.03;1.63;;;;;;;;;;5014210;28;20331;-55
2021/01/31 07:30:02;;;;;;;3.77;1.40;;;;;;;;;;5013954;28;20259;-55
2021/01/31 07:32:33;;;;;;;3.90;1.30;;;;;;;;;;5014121;28;20259;-55
2021/01/31 07:35:05;;;;;;;2.60;1.10;;;;;;;;;;5014122;28;20266;-55
2021/01/31 07:37:31;;;;;;;4.10;1.60;;;;;;;;;;5014122;28;20869;-55
2021/01/31 07:40:04;;;;;;;4.43;1.70;;;;;;;;;;5014008;28;20256;-55
2021/01/31 07:42:33;;;;;;;2.83;1.23;;;;;;;;;;5014057;28;20765;-55
2021/01/31 07:45:02;;;;;;;1.13;0.80;;;;;;;;;;5013929;28;20562;-55
2021/01/31 07:47:29;;;;;;;4.10;1.07;;;;;;;;;;5015271;28;20283;-55
2021/01/31 07:49:56;;;;;;;2.00;0.80;;;;;;;;;;5013793;28;20267;-55
2021/01/31 07:52:24;;;;;;;2.93;1.20;;;;;;;;;;5013860;28;20682;-55
2021/01/31 07:55:08;;;;;;;5.73;1.53;;;;;;;;;;5013658;28;20291;-55
2021/01/31 07:57:37;;;;;;;3.90;1.10;;;;;;;;;;5013682;28;20251;-55
2021/01/31 08:00:13;;;;;;;2.10;0.90;;;;;;;;;;5013675;28;20542;-55
2021/01/31 08:02:41;;;;;;;1.63;0.93;;;;;;;;;;5013730;28;20625;-55
2021/01/31 08:05:13;;;;;;;4.50;1.00;;;;;;;;;;5013574;28;20294;-55
2021/01/31 08:07:58;;;;;;;4.07;1.70;;;;;;;;;;5013440;28;20776;-55
2021/01/31 08:10:40;;;;;;;3.50;1.40;;;;;;;;;;5013389;28;20298;-55
2021/01/31 08:13:10;;;;;;;3.27;1.20;;;;;;;;;;5013476;28;20034;-55
2021/01/31 08:15:40;;;;;;;9.90;3.17;;;;;;;;;;5013644;28;20342;-55
2021/01/31 08:18:07;;;;;;;4.47;1.43;;;;;;;;;;5013441;28;20329;-55
2021/01/31 08:20:34;;;;;;;2.63;1.27;;;;;;;;;;5013284;28;20252;-55
2021/01/31 08:23:03;;;;;;;6.27;1.70;;;;;;;;;;5013397;28;20610;-55
2021/01/31 08:25:48;;;;;;;4.20;1.50;;;;;;;;;;5013290;28;20587;-55
2021/01/31 08:28:17;;;;;;;7.13;1.90;;;;;;;;;;5013276;28;20275;-55
2021/01/31 08:31:03;;;;;;;5.10;1.47;;;;;;;;;;5013224;28;20038;-55
2021/01/31 08:33:30;;;;;;;6.50;1.73;;;;;;;;;;5013020;28;20258;-55
2021/01/31 08:36:17;;;;;;;3.30;1.10;;;;;;;;;;5013155;28;20259;-55
2021/01/31 08:38:45;;;;;;;4.23;1.73;;;;;;;;;;5012992;28;20255;-55
2021/01/31 08:41:16;;;;;;;5.63;1.70;;;;;;;;;;5013085;28;20259;-55
2021/01/31 08:43:42;;;;;;;4.83;1.63;;;;;;;;;;5012971;28;20266;-55
2021/01/31 08:46:20;;;;;;;4.00;1.60;;;;;;;;;;5012914;28;20748;-55
2021/01/31 08:48:54;;;;;;;1.63;0.97;;;;;;;;;;5014693;28;20693;-55
2021/01/31 08:51:24;;;;;;;3.60;1.27;;;;;;;;;;5013275;28;20314;-55
2021/01/31 08:54:08;;;;;;;3.73;1.20;;;;;;;;;;5013020;28;20255;-55
2021/01/31 08:56:55;;;;;;;1.60;0.80;;;;;;;;;;5012968;28;20313;-55
2021/01/31 08:59:21;;;;;;;2.43;0.80;;;;;;;;;;5012912;28;20313;-55
2021/01/31 09:02:11;;;;;;;2.03;1.10;;;;;;;;;;5012989;28;20314;-55
2021/01/31 09:04:38;;;;;;;6.57;1.63;;;;;;;;;;5012095;28;20592;-55
2021/01/31 09:07:05;;;;;;;6.93;2.57;;;;;;;;;;5012806;28;20318;-55
2021/01/31 09:09:34;;;;;;;5.83;1.70;;;;;;;;;;5012798;28;20251;-55
2021/01/31 09:12:02;;;;;;;5.83;0.93;;;;;;;;;;5012771;28;20283;-55
2021/01/31 09:14:33;;;;;;;2.10;1.00;;;;;;;;;;5012751;28;20263;-55
2021/01/31 09:17:05;;;;;;;9.63;2.27;;;;;;;;;;5012708;28;20653;-55
2021/01/31 09:19:32;;;;;;;6.77;1.57;;;;;;;;;;5012707;28;20252;-55
2021/01/31 09:22:05;;;;;;;4.40;1.23;;;;;;;;;;5012852;28;20317;-55
2021/01/31 09:24:36;;;;;;;5.03;1.33;;;;;;;;;;5012749;28;20248;-55
2021/01/31 09:27:03;;;;;;;5.83;1.60;;;;;;;;;;5012691;28;20337;-55
2021/01/31 09:29:31;;;;;;;6.13;1.50;;;;;;;;;;5012738;28;20719;-55
2021/01/31 09:32:01;;;;;;;4.03;1.50;;;;;;;;;;5012592;28;20291;-55
2021/01/31 09:34:29;;;;;;;3.03;1.40;;;;;;;;;;5012568;28;20730;-55
2021/01/31 09:37:06;;;;;;;4.70;2.17;;;;;;;;;;5012472;28;20329;-55
2021/01/31 09:39:36;;;;;;;6.80;1.40;;;;;;;;;;5012518;28;20278;-55
2021/01/31 09:42:04;;;;;;;5.60;2.37;;;;;;;;;;5012465;28;20338;-55
2021/01/31 09:44:32;;;;;;;6.77;1.90;;;;;;;;;;5012563;28;20251;-55
2021/01/31 09:46:59;;;;;;;5.37;1.80;;;;;;;;;;5017630;28;20243;-55
2021/01/31 09:49:27;;;;;;;3.30;1.50;;;;;;;;;;5016115;28;20259;-55
2021/01/31 09:51:54;;;;;;;2.53;1.23;;;;;;;;;;5015876;28;20287;-55
2021/01/31 09:54:31;;;;;;;3.53;1.17;;;;;;;;;;5016014;28;20259;-55
2021/01/31 09:57:00;;;;;;;3.23;1.40;;;;;;;;;;5015902;28;20256;-55
2021/01/31 09:59:32;;;;;;;3.17;1.37;;;;;;;;;;5015866;28;20331;-55
2021/01/31 10:02:03;;;;;;;4.60;1.47;;;;;;;;;;5015887;28;20248;-55
2021/01/31 10:04:31;;;;;;;3.37;0.90;;;;;;;;;;5015765;28;20259;-55
2021/01/31 10:07:06;;;;;;;2.90;1.40;;;;;;;;;;5015738;28;20259;-55
2021/01/31 10:09:35;;;;;;;4.67;1.47;;;;;;;;;;5015651;28;20274;-55
2021/01/31 10:12:15;;;;;;;3.53;1.40;;;;;;;;;;5015616;28;20295;-55
2021/01/31 10:14:44;;;;;;;4.90;1.50;;;;;;;;;;5015561;28;20247;-55
2021/01/31 10:17:15;;;;;;;4.57;1.20;;;;;;;;;;5015488;28;20259;-55
2021/01/31 10:19:42;;;;;;;2.90;0.97;;;;;;;;;;5015467;28;20287;-55
2021/01/31 10:22:20;;;;;;;5.27;1.20;;;;;;;;;;5015604;28;20347;-55
2021/01/31 10:24:56;;;;;;;3.83;1.87;;;;;;;;;;5015282;28;20319;-55
2021/01/31 10:27:33;;;;;;;2.90;1.17;;;;;;;;;;5015297;28;20255;-55
2021/01/31 10:30:22;;;;;;;6.60;1.20;;;;;;;;;;5015303;28;20266;-55
2021/01/31 10:32:49;;;;;;;4.57;1.40;;;;;;;;;;5015503;28;20263;-55
2021/01/31 10:35:25;;;;;;;4.90;1.20;;;;;;;;;;5015131;28;20251;-55
2021/01/31 10:37:52;;;;;;;4.13;0.90;;;;;;;;;;5015128;28;20263;-55
2021/01/31 10:40:19;;;;;;;3.70;1.50;;;;;;;;;;5015085;28;20297;-55
2021/01/31 10:42:45;;;;;;;4.07;1.10;;;;;;;;;;5015106;28;20311;-55
2021/01/31 10:45:17;;;;;;;3.50;1.07;;;;;;;;;;5015026;28;20252;-55
2021/01/31 10:47:51;;;;;;;1.53;0.77;;;;;;;;;;5016675;28;20294;-55
2021/01/31 10:50:24;;;;;;;3.00;1.50;;;;;;;;;;5014958;28;20259;-54
2021/01/31 10:52:51;;;;;;;4.23;1.30;;;;;;;;;;5014897;28;20279;-55
2021/01/31 10:55:18;;;;;;;4.17;1.00;;;;;;;;;;5014752;28;20252;-55
2021/01/31 10:57:45;;;;;;;4.17;1.00;;;;;;;;;;5013747;28;20742;-55
2021/01/31 11:00:12;;;;;;;1.97;0.90;;;;;;;;;;5014621;28;20251;-55
2021/01/31 11:02:39;;;;;;;1.80;0.90;;;;;;;;;;5014708;28;20263;-55
2021/01/31 11:05:06;;;;;;;2.33;1.00;;;;;;;;;;5014703;28;20259;-55
2021/01/31 11:07:33;;;;;;;1.13;0.70;;;;;;;;;;5014572;28;20260;-55
2021/01/31 11:10:01;;;;;;;2.07;0.93;;;;;;;;;;5014496;28;20251;-55
2021/01/31 11:12:28;;;;;;;1.37;0.60;;;;;;;;;;5014584;28;20267;-55
2021/01/31 11:14:55;;;;;;;2.13;0.80;;;;;;;;;;5014467;28;20630;-55
2021/01/31 11:17:22;;;;;;;1.43;0.90;;;;;;;;;;5014345;28;20263;-54
2021/01/31 11:19:49;;;;;;;7.23;1.93;;;;;;;;;;5014352;28;20460;-55
2021/01/31 11:22:15;;;;;;;1.93;1.00;;;;;;;;;;5014294;28;20259;-55
2021/01/31 11:24:42;;;;;;;1.57;0.80;;;;;;;;;;5014373;28;20255;-55
2021/01/31 11:27:09;;;;;;;3.07;0.93;;;;;;;;;;5014240;28;20259;-55
2021/01/31 11:29:36;;;;;;;3.97;1.20;;;;;;;;;;5014117;28;20266;-55
2021/01/31 11:32:02;;;;;;;4.83;1.30;;;;;;;;;;5014160;28;20294;-55
2021/01/31 11:34:29;;;;;;;7.90;2.17;;;;;;;;;;5014129;28;20247;-55
2021/01/31 11:36:56;;;;;;;4.40;2.00;;;;;;;;;;5014098;28;20252;-55
2021/01/31 11:39:23;;;;;;;7.27;2.00;;;;;;;;;;5014136;28;20261;-55
2021/01/31 11:41:50;;;;;;;1.67;0.90;;;;;;;;;;5013983;28;20259;-55
2021/01/31 11:44:17;;;;;;;3.90;1.57;;;;;;;;;;5013943;28;20336;-55
2021/01/31 11:46:43;;;;;;;6.03;1.90;;;;;;;;;;5013811;28;20347;-55
2021/01/31 11:49:10;;;;;;;11.63;3.27;;;;;;;;;;5015569;28;20425;-55
2021/01/31 11:51:37;;;;;;;11.73;3.50;;;;;;;;;;5013758;28;20298;-55
2021/01/31 11:54:04;;;;;;;9.00;1.90;;;;;;;;;;5013787;28;20293;-55
2021/01/31 11:56:30;;;;;;;8.57;3.20;;;;;;;;;;5013721;28;20306;-55
2021/01/31 11:58:57;;;;;;;12.60;4.00;;;;;;;;;;5013740;28;20244;-55
2021/01/31 12:01:24;;;;;;;20.17;4.20;;;;;;;;;;5013688;28;20251;-55
2021/01/31 12:03:51;;;;;;;3.93;1.83;;;;;;;;;;5013548;28;20250;-54
2021/01/31 12:06:17;;;;;;;9.60;3.17;;;;;;;;;;5013614;28;20250;-55
2021/01/31 12:08:44;;;;;;;6.03;2.10;;;;;;;;;;5013280;28;20346;-55
2021/01/31 12:11:11;;;;;;;6.60;2.00;;;;;;;;;;5013498;28;20294;-55
2021/01/31 12:13:38;;;;;;;6.03;2.63;;;;;;;;;;5013497;28;20256;-55
2021/01/31 12:16:05;;;;;;;4.03;1.50;;;;;;;;;;5013337;28;20615;-55
2021/01/31 12:18:31;;;;;;;4.97;1.50;;;;;;;;;;5013369;28;20259;-55
2021/01/31 12:20:58;;;;;;;3.73;1.40;;;;;;;;;;5013435;28;20260;-55
2021/01/31 12:23:25;;;;;;;2.07;1.07;;;;;;;;;;5013379;28;20318;-54
2021/01/31 12:25:52;;;;;;;2.17;0.90;;;;;;;;;;5013180;28;20262;-55
2021/01/31 12:28:20;;;;;;;1.50;0.90;;;;;;;;;;5013566;28;20262;-55
2021/01/31 12:30:46;;;;;;;4.37;1.30;;;;;;;;;;5013215;28;20302;-55
2021/01/31 12:33:13;;;;;;;8.07;2.87;;;;;;;;;;5013153;28;20252;-55
2021/01/31 12:35:40;;;;;;;5.83;1.80;;;;;;;;;;5013112;28;20262;-55
2021/01/31 12:38:07;;;;;;;5.13;1.50;;;;;;;;;;5013186;28;20283;-55
2021/01/31 12:40:34;;;;;;;4.57;2.60;;;;;;;;;;5013087;28;20325;-55
2021/01/31 12:43:01;;;;;;;5.60;2.10;;;;;;;;;;5013109;28;20259;-55
2021/01/31 12:45:28;;;;;;;4.93;1.67;;;;;;;;;;5013006;28;20259;-55
2021/01/31 12:47:54;;;;;;;4.97;1.30;;;;;;;;;;5014547;28;20287;-55
2021/01/31 12:50:23;;;;;;;5.77;2.83;;;;;;;;;;5012966;28;20247;-55
2021/01/31 12:52:49;;;;;;;7.00;1.70;;;;;;;;;;5013076;28;20666;-55
2021/01/31 12:55:16;;;;;;;4.27;1.73;;;;;;;;;;5012848;28;20760;-55
2021/01/31 12:57:43;;;;;;;3.27;1.30;;;;;;;;;;5012934;28;20287;-55
2021/01/31 13:00:13;;;;;;;12.80;3.10;;;;;;;;;;5012819;28;20252;-55
2021/01/31 13:02:40;;;;;;;4.10;1.97;;;;;;;;;;5012857;28;20267;-55
2021/01/31 13:05:08;;;;;;;13.83;3.93;;;;;;;;;;5012884;28;20653;-55
2021/01/31 13:07:34;;;;;;;8.73;3.00;;;;;;;;;;5012842;28;20306;-55
2021/01/31 13:10:01;;;;;;;7.50;2.40;;;;;;;;;;5012884;28;20330;-55
2021/01/31 13:12:28;;;;;;;8.40;2.40;;;;;;;;;;5012849;28;20291;-55
2021/01/31 13:14:55;;;;;;;4.67;1.77;;;;;;;;;;5012707;28;20263;-55
2021/01/31 13:17:22;;;;;;;7.63;1.70;;;;;;;;;;5012840;28;20342;-55
2021/01/31 13:19:48;;;;;;;9.03;3.13;;;;;;;;;;5013398;28;20259;-55
2021/01/31 13:22:15;;;;;;;6.20;2.47;;;;;;;;;;5016578;28;20618;-55
2021/01/31 13:24:42;;;;;;;8.87;2.63;;;;;;;;;;5016615;28;20255;-55
2021/01/31 13:27:10;;;;;;;3.87;2.00;;;;;;;;;;5016501;28;20268;-55
2021/01/31 13:29:37;;;;;;;9.80;1.97;;;;;;;;;;5016435;28;20645;-55
2021/01/31 13:32:04;;;;;;;5.00;1.80;;;;;;;;;;5016343;28;20293;-55
2021/01/31 13:34:31;;;;;;;5.90;2.53;;;;;;;;;;5016425;28;20326;-55
2021/01/31 13:36:59;;;;;;;7.37;2.53;;;;;;;;;;5016225;28;20255;-55
2021/01/31 13:39:29;;;;;;;9.63;4.13;;;;;;;;;;5016263;28;20243;-55
2021/01/31 13:41:56;;;;;;;9.33;3.30;;;;;;;;;;5016322;28;20270;-55
2021/01/31 13:44:24;;;;;;;6.00;3.00;;;;;;;;;;5016249;28;20259;-55
2021/01/31 13:46:53;;;;;;;6.57;3.33;;;;;;;;;;5015908;28;20244;-55
2021/01/31 13:49:20;;;;;;;6.90;2.83;;;;;;;;;;5017707;28;20623;-55
2021/01/31 13:51:47;;;;;;;5.80;2.00;;;;;;;;;;5016196;28;20375;-55
2021/01/31 13:54:14;;;;;;;7.07;2.70;;;;;;;;;;5016030;28;20267;-55
2021/01/31 13:56:41;;;;;;;7.17;2.90;;;;;;;;;;5015993;28;20263;-55
2021/01/31 13:59:08;;;;;;;8.40;3.00;;;;;;;;;;5015851;28;20270;-55
2021/01/31 14:01:36;;;;;;;8.50;3.70;;;;;;;;;;5015913;28;20247;-55
2021/01/31 14:04:03;;;;;;;15.63;3.50;;;;;;;;;;5015865;28;20250;-55
2021/01/31 14:06:30;;;;;;;11.57;2.80;;;;;;;;;;5015730;28;20252;-55
2021/01/31 14:08:57;;;;;;;5.40;2.17;;;;;;;;;;5015626;28;20270;-55
2021/01/31 14:11:23;;;;;;;7.13;2.23;;;;;;;;;;5015612;28;20607;-55
2021/01/31 14:13:50;;;;;;;16.07;3.03;;;;;;;;;;5015728;28;20260;-55
2021/01/31 14:16:17;;;;;;;12.57;3.00;;;;;;;;;;5015580;28;20270;-55
2021/01/31 14:18:44;;;;;;;10.60;3.77;;;;;;;;;;5015474;28;20306;-56
2021/01/31 14:21:11;;;;;;;8.67;4.00;;;;;;;;;;5015603;28;20255;-56
2021/01/31 14:23:39;;;;;;;6.77;3.93;;;;;;;;;;5015551;28;20314;-56
2021/01/31 14:26:06;;;;;;;6.60;4.00;;;;;;;;;;5015465;28;20341;-55
2021/01/31 14:28:33;;;;;;;5.07;3.23;;;;;;;;;;5015410;28;20251;-56
2021/01/31 14:31:00;;;;;;;4.93;1.87;;;;;;;;;;5015370;28;20317;-56
2021/01/31 14:33:26;;;;;;;6.93;1.80;;;;;;;;;;5015377;28;20255;-56
2021/01/31 14:35:53;;;;;;;3.30;1.97;;;;;;;;;;5015207;28;20610;-56
2021/01/31 14:38:20;;;;;;;6.77;2.40;;;;;;;;;;5015202;28;20259;-56
2021/01/31 14:40:47;;;;;;;3.43;1.77;;;;;;;;;;5015072;28;20263;-56
2021/01/31 14:43:13;;;;;;;5.30;2.50;;;;;;;;;;5015163;28;20295;-56
2021/01/31 14:45:40;;;;;;;4.13;2.00;;;;;;;;;;5014908;28;20580;-56
2021/01/31 14:48:07;;;;;;;5.33;1.87;;;;;;;;;;5016593;28;20770;-56
2021/01/31 14:50:34;;;;;;;3.93;1.40;;;;;;;;;;5015234;28;20034;-56
2021/01/31 14:53:01;;;;;;;5.93;1.50;;;;;;;;;;5014974;28;20041;-56
2021/01/31 14:55:29;;;;;;;3.57;1.63;;;;;;;;;;5014801;28;20026;-56
2021/01/31 14:57:56;;;;;;;2.77;1.47;;;;;;;;;;5014812;28;20435;-55
2021/01/31 15:00:26;;;;;;;4.50;1.40;;;;;;;;;;5014757;28;20049;-56
2021/01/31 15:02:57;;;;;;;3.30;1.23;;;;;;;;;;5014812;28;20029;-56
2021/01/31 15:05:25;;;;;;;8.80;1.70;;;;;;;;;;5014692;28;20045;-56
2021/01/31 15:07:52;;;;;;;8.10;1.60;;;;;;;;;;5014646;28;20036;-57
2021/01/31 15:10:20;;;;;;;4.10;1.73;;;;;;;;;;5014544;28;20033;-57
2021/01/31 15:12:47;;;;;;;4.30;2.00;;;;;;;;;;5014529;28;20044;-57
2021/01/31 15:15:14;;;;;;;5.10;2.00;;;;;;;;;;5014400;28;20030;-57
2021/01/31 15:17:41;;;;;;;5.53;2.30;;;;;;;;;;5014369;28;20481;-57
2021/01/31 15:20:10;;;;;;;11.80;3.03;;;;;;;;;;5014479;28;20022;-57
2021/01/31 15:22:37;;;;;;;6.03;2.30;;;;;;;;;;5014450;28;20053;-57
2021/01/31 15:25:05;;;;;;;5.87;2.10;;;;;;;;;;5014367;28;20036;-57
2021/01/31 15:27:31;;;;;;;5.13;2.30;;;;;;;;;;5014487;28;20486;-57
2021/01/31 15:29:58;;;;;;;4.60;1.83;;;;;;;;;;5014316;28;20030;-57
2021/01/31 15:32:26;;;;;;;5.83;1.93;;;;;;;;;;5014141;28;20115;-57
2021/01/31 15:34:53;;;;;;;4.47;1.90;;;;;;;;;;5014110;28;20033;-57
2021/01/31 15:37:20;;;;;;;6.80;1.80;;;;;;;;;;5014117;28;20107;-57
2021/01/31 15:39:47;;;;;;;4.87;1.80;;;;;;;;;;5014107;28;20037;-57
2021/01/31 15:42:13;;;;;;;8.20;2.77;;;;;;;;;;5013873;28;20062;-57
2021/01/31 15:44:40;;;;;;;3.90;1.70;;;;;;;;;;5013778;28;20037;-57
2021/01/31 15:47:07;;;;;;;2.70;1.67;;;;;;;;;;5014121;28;20032;-57
2021/01/31 15:49:34;;;;;;;6.03;1.73;;;;;;;;;;5015587;28;20054;-57
2021/01/31 15:52:00;;;;;;;6.87;2.10;;;;;;;;;;5013736;28;20034;-57
2021/01/31 15:54:27;;;;;;;5.07;1.70;;;;;;;;;;5013941;28;20028;-57
2021/01/31 15:56:54;;;;;;;4.93;1.70;;;;;;;;;;5013755;28;20022;-57
2021/01/31 15:59:21;;;;;;;4.00;1.90;;;;;;;;;;5013773;28;20022;-57
2021/01/31 16:01:48;;;;;;;4.10;1.87;;;;;;;;;;5013712;28;20022;-57
2021/01/31 16:04:14;;;;;;;6.87;2.00;;;;;;;;;;5013995;28;20097;-58
2021/01/31 16:06:52;;;;;;;8.13;2.00;;;;;;;;;;5013447;28;20030;-58
2021/01/31 16:09:19;;;;;;;5.80;1.93;;;;;;;;;;5013566;28;20049;-57
2021/01/31 16:11:46;;;;;;;5.00;1.50;;;;;;;;;;5013483;28;20381;-57
2021/01/31 16:14:13;;;;;;;7.93;2.33;;;;;;;;;;5013451;28;20030;-56
2021/01/31 16:16:42;;;;;;;5.60;1.97;;;;;;;;;;5013463;28;20026;-56
2021/01/31 16:19:09;;;;;;;9.40;2.43;;;;;;;;;;5013403;28;20381;-56
2021/01/31 16:21:36;;;;;;;7.93;2.63;;;;;;;;;;5013314;28;20026;-56
2021/01/31 16:24:03;;;;;;;6.40;2.50;;;;;;;;;;5013241;28;20033;-57
2021/01/31 16:26:30;;;;;;;7.20;2.20;;;;;;;;;;5013251;28;20104;-56
2021/01/31 16:28:57;;;;;;;4.50;1.90;;;;;;;;;;5013597;28;20022;-56
2021/01/31 16:31:23;;;;;;;7.07;2.50;;;;;;;;;;5013228;28;20034;-57
2021/01/31 16:33:51;;;;;;;10.33;2.53;;;;;;;;;;4995641;28;20539;-56
2021/01/31 16:36:19;;;;;;;5.73;2.23;;;;;;;;;;5013261;28;20076;-56
2021/01/31 16:38:46;;;;;;;5.40;2.20;;;;;;;;;;5013183;28;20029;-56
2021/01/31 16:41:13;;;;;;;4.07;1.90;;;;;;;;;;5013385;28;20042;-56
2021/01/31 16:43:40;;;;;;;4.73;2.03;;;;;;;;;;5013155;28;20496;-57
2021/01/31 16:46:07;;;;;;;4.57;2.33;;;;;;;;;;5013052;28;20533;-57
2021/01/31 16:48:34;;;;;;;4.43;2.50;;;;;;;;;;5014645;28;20082;-56
2021/01/31 16:51:01;;;;;;;3.53;1.77;;;;;;;;;;5013063;28;20515;-57
2021/01/31 16:53:28;;;;;;;13.93;2.67;;;;;;;;;;5012686;28;20029;-57
2021/01/31 16:55:56;;;;;;;5.57;2.57;;;;;;;;;;5015144;28;20057;-57
2021/01/31 16:58:23;;;;;;;3.17;1.93;;;;;;;;;;5016840;28;20084;-57
2021/01/31 17:00:51;;;;;;;7.03;2.47;;;;;;;;;;5016955;28;20056;-57
2021/01/31 17:03:18;;;;;;;6.13;2.10;;;;;;;;;;5016962;28;20062;-57
2021/01/31 17:05:46;;;;;;;6.40;2.40;;;;;;;;;;5016965;28;20026;-57
2021/01/31 17:08:13;;;;;;;7.30;2.33;;;;;;;;;;5016874;28;20053;-57
2021/01/31 17:10:40;;;;;;;5.37;2.40;;;;;;;;;;5016838;28;20083;-57
2021/01/31 17:13:07;;;;;;;5.97;2.40;;;;;;;;;;5016931;28;20022;-57
2021/01/31 17:15:34;;;;;;;6.83;2.33;;;;;;;;;;5016736;28;20122;-57
2021/01/31 17:18:01;;;;;;;6.43;2.23;;;;;;;;;;5016706;28;20030;-57
2021/01/31 17:20:27;;;;;;;5.97;2.90;;;;;;;;;;5016645;28;20106;-57
2021/01/31 17:22:54;;;;;;;9.13;2.43;;;;;;;;;;5016666;28;20030;-57
2021/01/31 17:25:23;;;;;;;5.10;2.20;;;;;;;;;;5016889;28;20037;-57
2021/01/31 17:27:50;;;;;;;8.13;3.70;;;;;;;;;;5016572;28;20361;-57
2021/01/31 17:30:18;;;;;;;7.47;2.27;;;;;;;;;;5016363;28;20048;-57
2021/01/31 17:32:45;;;;;;;6.10;2.70;;;;;;;;;;5016445;28;20065;-57
2021/01/31 17:35:12;;;;;;;7.03;3.10;;;;;;;;;;5016355;28;20542;-57
2021/01/31 17:37:39;;;;;;;7.70;2.43;;;;;;;;;;5016391;28;20376;-57
2021/01/31 17:40:07;;;;;;;3.70;1.87;;;;;;;;;;5016402;28;20022;-57
2021/01/31 17:42:41;;;;;;;5.43;1.90;;;;;;;;;;5016065;28;20030;-57
2021/01/31 17:45:09;;;;;;;8.05;1.77;;;;;;;;;;5016225;28;20030;-57
2021/01/31 17:47:36;;;;;;;4.93;1.63;;;;;;;;;;5016082;28;20025;-57
2021/01/31 17:50:09;;;;;;;3.77;2.00;;;;;;;;;;5017789;28;20050;-57
2021/01/31 17:52:38;;;;;;;5.27;2.00;;;;;;;;;;5015970;28;20124;-57
2021/01/31 17:55:07;;;;;;;5.53;1.90;;;;;;;;;;5015978;28;20037;-57
2021/01/31 17:57:34;;;;;;;3.23;1.73;;;;;;;;;;5015951;28;20037;-57
2021/01/31 18:00:01;;;;;;;5.83;1.60;;;;;;;;;;5015965;28;20030;-57
2021/01/31 18:02:27;;;;;;;4.77;1.80;;;;;;;;;;5015896;28;20109;-57
2021/01/31 18:04:54;;;;;;;3.70;1.70;;;;;;;;;;5015747;28;20450;-57
2021/01/31 18:07:21;;;;;;;2.50;1.60;;;;;;;;;;5015385;28;20388;-57
2021/01/31 18:09:48;;;;;;;4.90;1.67;;;;;;;;;;5015666;28;20362;-57
2021/01/31 18:12:14;;;;;;;6.80;1.63;;;;;;;;;;5015753;28;20060;-57
2021/01/31 18:14:41;;;;;;;5.47;1.37;;;;;;;;;;5015615;28;20044;-57
2021/01/31 18:17:09;;;;;;;2.97;1.80;;;;;;;;;;5015672;28;20026;-57
2021/01/31 18:19:36;;;;;;;4.70;1.60;;;;;;;;;;5015779;28;20057;-57
2021/01/31 18:22:04;;;;;;;2.23;1.20;;;;;;;;;;5015534;28;20026;-57
2021/01/31 18:24:31;;;;;;;8.97;1.70;;;;;;;;;;5015366;28;20042;-57
2021/01/31 18:26:58;;;;;;;6.63;2.10;;;;;;;;;;5015571;28;20029;-57
2021/01/31 18:29:25;;;;;;;5.73;1.60;;;;;;;;;;5015409;28;20026;-57
2021/01/31 18:31:52;;;;;;;5.73;1.60;;;;;;;;;;5015235;28;20033;-57
2021/01/31 18:34:19;;;;;;;4.43;1.40;;;;;;;;;;5015441;28;20025;-57
2021/01/31 18:36:46;;;;;;;3.80;1.60;;;;;;;;;;5015117;28;20417;-57
2021/01/31 18:39:13;;;;;;;3.53;1.80;;;;;;;;;;5015156;28;20028;-57
2021/01/31 18:41:41;;;;;;;3.60;1.60;;;;;;;;;;5015176;28;20041;-57